sensor_id;sensor_type;location;lat;lon;timestamp;P1;durP1;ratioP1;P2;durP2;ratioP2
57231;SDS011;43488;46.934;8.276;2022-07-22T00:01:12;673.70;;;448.92;;
57231;SDS011;43488;46.934;8.276;2022-07-22T00:03:39;671.35;;;440.73;;
57231;SDS011;43488;46.934;8.276;2022-07-22T00:06:06;672.85;;;448.35;;
57231;SDS011;43488;46.934;8.276;2022-07-22T00:08:34;674.30;;;441.80;;
57231;SDS011;43488;46.934;8.276;2022-07-22T00:11:01;671.33;;;442.55;;
57231;SDS011;43488;46.934;8.276;2022-07-22T00:13:29;669.25;;;376.45;;
57231;SDS011;43488;46.934;8.276;2022-07-22T00:15:57;664.45;;;379.33;;
57231;SDS011;43488;46.934;8.276;2022-07-22T00:18:25;675.88;;;445.50;;
57231;SDS011;43488;46.934;8.276;2022-07-22T00:20:53;671.97;;;445.05;;
57231;SDS011;43488;46.934;8.276;2022-07-22T00:23:21;670.22;;;380.92;;
57231;SDS011;43488;46.934;8.276;2022-07-22T00:25:49;665.25;;;378.33;;
57231;SDS011;43488;46.934;8.276;2022-07-22T00:28:16;664.67;;;375.30;;
57231;SDS011;43488;46.934;8.276;2022-07-22T00:30:44;670.10;;;384.17;;
57231;SDS011;43488;46.934;8.276;2022-07-22T00:33:11;664.75;;;375.67;;
57231;SDS011;43488;46.934;8.276;2022-07-22T00:35:39;661.17;;;379.63;;
57231;SDS011;43488;46.934;8.276;2022-07-22T00:38:06;660.80;;;370.73;;
57231;SDS011;43488;46.934;8.276;2022-07-22T00:40:34;659.30;;;372.90;;
57231;SDS011;43488;46.934;8.276;2022-07-22T00:43:01;666.85;;;380.15;;
57231;SDS011;43488;46.934;8.276;2022-07-22T00:45:29;667.38;;;380.00;;
57231;SDS011;43488;46.934;8.276;2022-07-22T00:47:56;662.72;;;374.48;;
57231;SDS011;43488;46.934;8.276;2022-07-22T00:50:24;662.38;;;381.58;;
57231;SDS011;43488;46.934;8.276;2022-07-22T00:52:51;671.00;;;441.00;;
57231;SDS011;43488;46.934;8.276;2022-07-22T00:55:20;666.45;;;379.45;;
57231;SDS011;43488;46.934;8.276;2022-07-22T00:57:47;671.83;;;444.13;;
57231;SDS011;43488;46.934;8.276;2022-07-22T01:00:16;665.90;;;377.17;;
57231;SDS011;43488;46.934;8.276;2022-07-22T01:02:47;670.08;;;443.73;;
57231;SDS011;43488;46.934;8.276;2022-07-22T01:05:16;670.92;;;448.17;;
57231;SDS011;43488;46.934;8.276;2022-07-22T01:07:44;671.25;;;439.35;;
57231;SDS011;43488;46.934;8.276;2022-07-22T01:10:12;671.90;;;445.35;;
57231;SDS011;43488;46.934;8.276;2022-07-22T01:12:40;669.88;;;383.65;;
57231;SDS011;43488;46.934;8.276;2022-07-22T01:15:08;673.20;;;452.80;;
57231;SDS011;43488;46.934;8.276;2022-07-22T01:17:35;672.95;;;440.13;;
57231;SDS011;43488;46.934;8.276;2022-07-22T01:20:04;668.15;;;441.08;;
57231;SDS011;43488;46.934;8.276;2022-07-22T01:22:33;669.17;;;378.50;;
57231;SDS011;43488;46.934;8.276;2022-07-22T01:25:01;672.92;;;450.58;;
57231;SDS011;43488;46.934;8.276;2022-07-22T01:27:29;672.17;;;441.92;;
57231;SDS011;43488;46.934;8.276;2022-07-22T01:29:56;671.38;;;444.83;;
57231;SDS011;43488;46.934;8.276;2022-07-22T01:32:23;668.15;;;376.67;;
57231;SDS011;43488;46.934;8.276;2022-07-22T01:34:51;665.45;;;379.02;;
57231;SDS011;43488;46.934;8.276;2022-07-22T01:37:18;671.33;;;433.30;;
57231;SDS011;43488;46.934;8.276;2022-07-22T01:39:47;674.25;;;444.83;;
57231;SDS011;43488;46.934;8.276;2022-07-22T01:42:15;668.20;;;372.02;;
57231;SDS011;43488;46.934;8.276;2022-07-22T01:44:43;663.33;;;373.10;;
57231;SDS011;43488;46.934;8.276;2022-07-22T01:47:11;664.85;;;370.38;;
57231;SDS011;43488;46.934;8.276;2022-07-22T01:49:39;670.33;;;377.65;;
57231;SDS011;43488;46.934;8.276;2022-07-22T01:52:06;675.17;;;440.25;;
57231;SDS011;43488;46.934;8.276;2022-07-22T01:54:34;672.25;;;381.35;;
57231;SDS011;43488;46.934;8.276;2022-07-22T01:57:03;673.95;;;436.42;;
57231;SDS011;43488;46.934;8.276;2022-07-22T01:59:31;670.17;;;374.33;;
57231;SDS011;43488;46.934;8.276;2022-07-22T02:01:59;674.33;;;439.75;;
57231;SDS011;43488;46.934;8.276;2022-07-22T02:04:27;673.35;;;442.55;;
57231;SDS011;43488;46.934;8.276;2022-07-22T02:06:55;670.90;;;368.92;;
57231;SDS011;43488;46.934;8.276;2022-07-22T02:09:23;679.13;;;444.77;;
57231;SDS011;43488;46.934;8.276;2022-07-22T02:11:50;683.38;;;445.65;;
57231;SDS011;43488;46.934;8.276;2022-07-22T02:14:18;671.42;;;373.83;;
57231;SDS011;43488;46.934;8.276;2022-07-22T02:16:46;673.15;;;365.55;;
57231;SDS011;43488;46.934;8.276;2022-07-22T02:19:13;683.67;;;436.77;;
57231;SDS011;43488;46.934;8.276;2022-07-22T02:21:40;689.33;;;438.17;;
57231;SDS011;43488;46.934;8.276;2022-07-22T02:24:08;692.85;;;444.95;;
57231;SDS011;43488;46.934;8.276;2022-07-22T02:26:36;689.03;;;433.02;;
57231;SDS011;43488;46.934;8.276;2022-07-22T02:29:04;688.88;;;437.10;;
57231;SDS011;43488;46.934;8.276;2022-07-22T02:31:31;696.10;;;440.60;;
57231;SDS011;43488;46.934;8.276;2022-07-22T02:33:59;682.65;;;374.23;;
57231;SDS011;43488;46.934;8.276;2022-07-22T02:36:27;696.42;;;433.77;;
57231;SDS011;43488;46.934;8.276;2022-07-22T02:38:54;688.72;;;370.95;;
57231;SDS011;43488;46.934;8.276;2022-07-22T02:41:22;699.50;;;445.83;;
57231;SDS011;43488;46.934;8.276;2022-07-22T02:43:49;696.33;;;442.80;;
57231;SDS011;43488;46.934;8.276;2022-07-22T02:46:23;704.57;;;442.03;;
57231;SDS011;43488;46.934;8.276;2022-07-22T02:48:52;699.25;;;438.42;;
57231;SDS011;43488;46.934;8.276;2022-07-22T02:51:19;686.35;;;367.63;;
57231;SDS011;43488;46.934;8.276;2022-07-22T02:53:47;685.22;;;368.48;;
57231;SDS011;43488;46.934;8.276;2022-07-22T02:56:16;698.47;;;432.75;;
57231;SDS011;43488;46.934;8.276;2022-07-22T02:58:43;700.35;;;441.85;;
57231;SDS011;43488;46.934;8.276;2022-07-22T03:01:12;686.17;;;364.45;;
57231;SDS011;43488;46.934;8.276;2022-07-22T03:03:40;695.42;;;378.88;;
57231;SDS011;43488;46.934;8.276;2022-07-22T03:06:07;701.17;;;436.55;;
57231;SDS011;43488;46.934;8.276;2022-07-22T03:08:35;694.85;;;432.70;;
57231;SDS011;43488;46.934;8.276;2022-07-22T03:11:04;688.03;;;367.25;;
57231;SDS011;43488;46.934;8.276;2022-07-22T03:13:31;699.65;;;441.23;;
57231;SDS011;43488;46.934;8.276;2022-07-22T03:15:59;686.78;;;366.00;;
57231;SDS011;43488;46.934;8.276;2022-07-22T03:18:26;700.30;;;438.55;;
57231;SDS011;43488;46.934;8.276;2022-07-22T03:20:53;691.50;;;366.75;;
57231;SDS011;43488;46.934;8.276;2022-07-22T03:23:20;700.70;;;443.60;;
57231;SDS011;43488;46.934;8.276;2022-07-22T03:25:48;686.10;;;360.50;;
57231;SDS011;43488;46.934;8.276;2022-07-22T03:28:15;702.90;;;441.95;;
57231;SDS011;43488;46.934;8.276;2022-07-22T03:30:42;693.70;;;369.88;;
57231;SDS011;43488;46.934;8.276;2022-07-22T03:33:09;696.40;;;379.00;;
57231;SDS011;43488;46.934;8.276;2022-07-22T03:35:36;694.97;;;370.08;;
57231;SDS011;43488;46.934;8.276;2022-07-22T03:38:04;686.97;;;365.95;;
57231;SDS011;43488;46.934;8.276;2022-07-22T03:40:31;694.45;;;369.70;;
57231;SDS011;43488;46.934;8.276;2022-07-22T03:42:58;699.30;;;435.58;;
57231;SDS011;43488;46.934;8.276;2022-07-22T03:45:25;691.30;;;368.83;;
57231;SDS011;43488;46.934;8.276;2022-07-22T03:47:53;694.88;;;369.85;;
57231;SDS011;43488;46.934;8.276;2022-07-22T03:50:21;701.90;;;437.05;;
57231;SDS011;43488;46.934;8.276;2022-07-22T03:52:48;693.60;;;368.75;;
57231;SDS011;43488;46.934;8.276;2022-07-22T03:55:15;695.63;;;365.10;;
57231;SDS011;43488;46.934;8.276;2022-07-22T03:57:43;696.95;;;377.00;;
57231;SDS011;43488;46.934;8.276;2022-07-22T04:00:10;701.67;;;428.15;;
57231;SDS011;43488;46.934;8.276;2022-07-22T04:02:39;705.65;;;436.50;;
57231;SDS011;43488;46.934;8.276;2022-07-22T04:05:07;691.97;;;366.50;;
57231;SDS011;43488;46.934;8.276;2022-07-22T04:07:34;704.08;;;434.20;;
57231;SDS011;43488;46.934;8.276;2022-07-22T04:10:02;692.40;;;367.85;;
57231;SDS011;43488;46.934;8.276;2022-07-22T04:12:37;703.97;;;449.52;;
57231;SDS011;43488;46.934;8.276;2022-07-22T04:15:07;698.63;;;371.45;;
57231;SDS011;43488;46.934;8.276;2022-07-22T04:17:35;705.10;;;438.23;;
57231;SDS011;43488;46.934;8.276;2022-07-22T04:20:03;697.72;;;370.20;;
57231;SDS011;43488;46.934;8.276;2022-07-22T04:22:33;689.20;;;365.58;;
57231;SDS011;43488;46.934;8.276;2022-07-22T04:25:00;697.25;;;369.58;;
57231;SDS011;43488;46.934;8.276;2022-07-22T04:27:28;701.05;;;432.10;;
57231;SDS011;43488;46.934;8.276;2022-07-22T04:29:55;704.20;;;438.58;;
57231;SDS011;43488;46.934;8.276;2022-07-22T04:32:24;696.92;;;374.48;;
57231;SDS011;43488;46.934;8.276;2022-07-22T04:34:51;703.63;;;432.13;;
57231;SDS011;43488;46.934;8.276;2022-07-22T04:37:19;703.83;;;439.30;;
57231;SDS011;43488;46.934;8.276;2022-07-22T04:39:47;702.28;;;430.90;;
57231;SDS011;43488;46.934;8.276;2022-07-22T04:42:15;701.08;;;436.40;;
57231;SDS011;43488;46.934;8.276;2022-07-22T04:44:42;690.85;;;365.33;;
57231;SDS011;43488;46.934;8.276;2022-07-22T04:47:11;687.22;;;364.85;;
57231;SDS011;43488;46.934;8.276;2022-07-22T04:49:39;690.55;;;368.35;;
57231;SDS011;43488;46.934;8.276;2022-07-22T04:52:06;704.80;;;454.60;;
57231;SDS011;43488;46.934;8.276;2022-07-22T04:54:34;703.58;;;431.63;;
57231;SDS011;43488;46.934;8.276;2022-07-22T04:57:03;704.67;;;437.42;;
57231;SDS011;43488;46.934;8.276;2022-07-22T04:59:31;689.92;;;363.90;;
57231;SDS011;43488;46.934;8.276;2022-07-22T05:01:58;704.67;;;441.35;;
57231;SDS011;43488;46.934;8.276;2022-07-22T05:04:26;689.13;;;363.25;;
57231;SDS011;43488;46.934;8.276;2022-07-22T05:06:53;694.92;;;370.60;;
57231;SDS011;43488;46.934;8.276;2022-07-22T05:09:21;698.58;;;376.77;;
57231;SDS011;43488;46.934;8.276;2022-07-22T05:11:51;696.65;;;376.27;;
57231;SDS011;43488;46.934;8.276;2022-07-22T05:14:19;692.00;;;366.75;;
57231;SDS011;43488;46.934;8.276;2022-07-22T05:16:46;703.97;;;444.10;;
57231;SDS011;43488;46.934;8.276;2022-07-22T05:19:15;706.85;;;441.55;;
57231;SDS011;43488;46.934;8.276;2022-07-22T05:21:42;705.53;;;443.42;;
57231;SDS011;43488;46.934;8.276;2022-07-22T05:24:11;703.25;;;435.80;;
57231;SDS011;43488;46.934;8.276;2022-07-22T05:26:38;706.40;;;444.50;;
57231;SDS011;43488;46.934;8.276;2022-07-22T05:29:07;698.42;;;378.70;;
57231;SDS011;43488;46.934;8.276;2022-07-22T05:31:35;692.47;;;374.70;;
57231;SDS011;43488;46.934;8.276;2022-07-22T05:34:03;709.90;;;445.10;;
57231;SDS011;43488;46.934;8.276;2022-07-22T05:36:30;704.70;;;443.55;;
57231;SDS011;43488;46.934;8.276;2022-07-22T05:38:58;698.90;;;378.23;;
57231;SDS011;43488;46.934;8.276;2022-07-22T05:41:25;708.45;;;452.50;;
57231;SDS011;43488;46.934;8.276;2022-07-22T05:43:53;697.67;;;372.80;;
57231;SDS011;43488;46.934;8.276;2022-07-22T05:46:21;706.10;;;441.98;;
57231;SDS011;43488;46.934;8.276;2022-07-22T05:48:48;705.67;;;442.05;;
57231;SDS011;43488;46.934;8.276;2022-07-22T05:51:15;699.08;;;383.35;;
57231;SDS011;43488;46.934;8.276;2022-07-22T05:53:43;709.42;;;445.13;;
57231;SDS011;43488;46.934;8.276;2022-07-22T05:56:11;706.42;;;443.20;;
57231;SDS011;43488;46.934;8.276;2022-07-22T05:58:39;710.20;;;449.13;;
57231;SDS011;43488;46.934;8.276;2022-07-22T06:01:09;699.08;;;380.80;;
57231;SDS011;43488;46.934;8.276;2022-07-22T06:03:38;710.78;;;447.58;;
57231;SDS011;43488;46.934;8.276;2022-07-22T06:06:07;707.67;;;446.92;;
57231;SDS011;43488;46.934;8.276;2022-07-22T06:08:35;712.78;;;453.45;;
57231;SDS011;43488;46.934;8.276;2022-07-22T06:11:03;696.30;;;383.10;;
57231;SDS011;43488;46.934;8.276;2022-07-22T06:13:32;709.03;;;446.98;;
57231;SDS011;43488;46.934;8.276;2022-07-22T06:16:00;696.45;;;384.02;;
57231;SDS011;43488;46.934;8.276;2022-07-22T06:18:27;697.22;;;384.02;;
57231;SDS011;43488;46.934;8.276;2022-07-22T06:20:56;710.20;;;454.42;;
57231;SDS011;43488;46.934;8.276;2022-07-22T06:23:23;694.95;;;376.48;;
57231;SDS011;43488;46.934;8.276;2022-07-22T06:25:52;709.33;;;449.10;;
57231;SDS011;43488;46.934;8.276;2022-07-22T06:28:20;711.00;;;454.08;;
57231;SDS011;43488;46.934;8.276;2022-07-22T06:30:47;711.08;;;453.77;;
57231;SDS011;43488;46.934;8.276;2022-07-22T06:33:15;710.50;;;444.45;;
57231;SDS011;43488;46.934;8.276;2022-07-22T06:35:42;703.35;;;393.40;;
57231;SDS011;43488;46.934;8.276;2022-07-22T06:38:09;701.75;;;391.75;;
57231;SDS011;43488;46.934;8.276;2022-07-22T06:40:37;710.70;;;451.70;;
57231;SDS011;43488;46.934;8.276;2022-07-22T06:43:05;694.67;;;378.02;;
57231;SDS011;43488;46.934;8.276;2022-07-22T06:45:32;694.13;;;375.02;;
57231;SDS011;43488;46.934;8.276;2022-07-22T06:48:00;701.72;;;387.80;;
57231;SDS011;43488;46.934;8.276;2022-07-22T06:50:27;698.20;;;394.55;;
57231;SDS011;43488;46.934;8.276;2022-07-22T06:52:54;702.28;;;388.58;;
57231;SDS011;43488;46.934;8.276;2022-07-22T06:55:22;710.67;;;458.73;;
57231;SDS011;43488;46.934;8.276;2022-07-22T06:57:50;713.20;;;456.63;;
57231;SDS011;43488;46.934;8.276;2022-07-22T07:00:17;698.90;;;392.45;;
57231;SDS011;43488;46.934;8.276;2022-07-22T07:02:45;714.22;;;459.10;;
57231;SDS011;43488;46.934;8.276;2022-07-22T07:05:13;702.28;;;396.77;;
57231;SDS011;43488;46.934;8.276;2022-07-22T07:07:41;697.00;;;394.42;;
57231;SDS011;43488;46.934;8.276;2022-07-22T07:10:09;714.55;;;468.38;;
57231;SDS011;43488;46.934;8.276;2022-07-22T07:12:38;714.10;;;458.45;;
57231;SDS011;43488;46.934;8.276;2022-07-22T07:15:06;702.28;;;399.98;;
57231;SDS011;43488;46.934;8.276;2022-07-22T07:17:34;701.13;;;393.80;;
57231;SDS011;43488;46.934;8.276;2022-07-22T07:20:03;714.35;;;464.90;;
57231;SDS011;43488;46.934;8.276;2022-07-22T07:22:32;694.28;;;385.42;;
57231;SDS011;43488;46.934;8.276;2022-07-22T07:25:07;706.72;;;405.77;;
57231;SDS011;43488;46.934;8.276;2022-07-22T07:27:36;714.17;;;459.95;;
57231;SDS011;43488;46.934;8.276;2022-07-22T07:30:04;700.67;;;395.67;;
57231;SDS011;43488;46.934;8.276;2022-07-22T07:32:35;704.80;;;394.30;;
57231;SDS011;43488;46.934;8.276;2022-07-22T07:35:06;700.45;;;407.48;;
57231;SDS011;43488;46.934;8.276;2022-07-22T07:37:34;714.78;;;449.77;;
57231;SDS011;43488;46.934;8.276;2022-07-22T07:40:03;700.17;;;405.90;;
57231;SDS011;43488;46.934;8.276;2022-07-22T07:42:33;698.78;;;397.13;;
57231;SDS011;43488;46.934;8.276;2022-07-22T07:45:01;712.28;;;464.73;;
57231;SDS011;43488;46.934;8.276;2022-07-22T07:47:29;713.33;;;450.63;;
57231;SDS011;43488;46.934;8.276;2022-07-22T07:49:57;702.53;;;407.75;;
57231;SDS011;43488;46.934;8.276;2022-07-22T07:52:27;698.60;;;395.38;;
57231;SDS011;43488;46.934;8.276;2022-07-22T07:54:55;702.35;;;403.70;;
57231;SDS011;43488;46.934;8.276;2022-07-22T07:57:23;721.28;;;453.75;;
57231;SDS011;43488;46.934;8.276;2022-07-22T07:59:51;703.50;;;401.20;;
57231;SDS011;43488;46.934;8.276;2022-07-22T08:02:19;712.20;;;446.23;;
57231;SDS011;43488;46.934;8.276;2022-07-22T08:04:46;715.22;;;443.73;;
57231;SDS011;43488;46.934;8.276;2022-07-22T08:07:14;709.70;;;460.98;;
57231;SDS011;43488;46.934;8.276;2022-07-22T08:09:42;720.40;;;476.67;;
57231;SDS011;43488;46.934;8.276;2022-07-22T08:12:10;703.92;;;413.80;;
57231;SDS011;43488;46.934;8.276;2022-07-22T08:14:38;709.38;;;458.83;;
57231;SDS011;43488;46.934;8.276;2022-07-22T08:17:06;714.65;;;455.20;;
57231;SDS011;43488;46.934;8.276;2022-07-22T08:19:33;697.20;;;407.20;;
57231;SDS011;43488;46.934;8.276;2022-07-22T08:22:01;714.95;;;456.67;;
57231;SDS011;43488;46.934;8.276;2022-07-22T08:24:28;695.22;;;403.02;;
57231;SDS011;43488;46.934;8.276;2022-07-22T08:26:56;697.50;;;409.98;;
57231;SDS011;43488;46.934;8.276;2022-07-22T08:29:24;713.05;;;483.23;;
57231;SDS011;43488;46.934;8.276;2022-07-22T08:31:52;695.53;;;404.58;;
57231;SDS011;43488;46.934;8.276;2022-07-22T08:34:20;713.38;;;468.60;;
57231;SDS011;43488;46.934;8.276;2022-07-22T08:36:47;712.80;;;460.00;;
57231;SDS011;43488;46.934;8.276;2022-07-22T08:39:14;711.63;;;465.63;;
57231;SDS011;43488;46.934;8.276;2022-07-22T08:41:41;695.20;;;409.25;;
57231;SDS011;43488;46.934;8.276;2022-07-22T08:44:09;706.60;;;465.20;;
57231;SDS011;43488;46.934;8.276;2022-07-22T08:46:37;706.45;;;459.92;;
57231;SDS011;43488;46.934;8.276;2022-07-22T08:49:04;711.20;;;474.73;;
57231;SDS011;43488;46.934;8.276;2022-07-22T08:51:33;708.38;;;453.85;;
57231;SDS011;43488;46.934;8.276;2022-07-22T08:54:00;702.97;;;461.85;;
57231;SDS011;43488;46.934;8.276;2022-07-22T08:56:27;709.85;;;465.60;;
57231;SDS011;43488;46.934;8.276;2022-07-22T08:58:54;697.85;;;418.48;;
57231;SDS011;43488;46.934;8.276;2022-07-22T09:01:22;710.85;;;464.50;;
57231;SDS011;43488;46.934;8.276;2022-07-22T09:03:50;693.13;;;416.77;;
57231;SDS011;43488;46.934;8.276;2022-07-22T09:06:24;706.63;;;465.83;;
57231;SDS011;43488;46.934;8.276;2022-07-22T09:08:57;702.05;;;437.25;;
57231;SDS011;43488;46.934;8.276;2022-07-22T09:11:31;693.60;;;415.05;;
57231;SDS011;43488;46.934;8.276;2022-07-22T09:13:59;692.33;;;418.25;;
57231;SDS011;43488;46.934;8.276;2022-07-22T09:16:40;704.08;;;463.40;;
57231;SDS011;43488;46.934;8.276;2022-07-22T09:19:14;692.03;;;425.52;;
57231;SDS011;43488;46.934;8.276;2022-07-22T09:21:42;693.22;;;420.15;;
57231;SDS011;43488;46.934;8.276;2022-07-22T09:24:29;694.95;;;424.65;;
57231;SDS011;43488;46.934;8.276;2022-07-22T09:26:59;706.45;;;461.10;;
57231;SDS011;43488;46.934;8.276;2022-07-22T09:29:28;705.78;;;468.00;;
57231;SDS011;43488;46.934;8.276;2022-07-22T09:31:55;701.50;;;464.20;;
57231;SDS011;43488;46.934;8.276;2022-07-22T09:34:27;692.63;;;415.05;;
57231;SDS011;43488;46.934;8.276;2022-07-22T09:37:00;706.40;;;470.70;;
57231;SDS011;43488;46.934;8.276;2022-07-22T09:39:29;706.78;;;480.20;;
57231;SDS011;43488;46.934;8.276;2022-07-22T09:41:59;695.58;;;424.30;;
57231;SDS011;43488;46.934;8.276;2022-07-22T09:44:32;691.58;;;424.27;;
57231;SDS011;43488;46.934;8.276;2022-07-22T09:47:00;706.72;;;479.00;;
57231;SDS011;43488;46.934;8.276;2022-07-22T09:49:32;697.42;;;438.42;;
57231;SDS011;43488;46.934;8.276;2022-07-22T09:52:02;693.80;;;426.13;;
57231;SDS011;43488;46.934;8.276;2022-07-22T09:54:31;688.47;;;427.58;;
57231;SDS011;43488;46.934;8.276;2022-07-22T09:56:59;702.78;;;486.08;;
57231;SDS011;43488;46.934;8.276;2022-07-22T09:59:30;703.28;;;476.35;;
57231;SDS011;43488;46.934;8.276;2022-07-22T10:01:58;685.55;;;423.50;;
57231;SDS011;43488;46.934;8.276;2022-07-22T10:04:26;698.70;;;470.73;;
57231;SDS011;43488;46.934;8.276;2022-07-22T10:06:59;700.90;;;470.85;;
57231;SDS011;43488;46.934;8.276;2022-07-22T10:09:28;691.70;;;436.85;;
57231;SDS011;43488;46.934;8.276;2022-07-22T10:12:03;697.25;;;469.02;;
57231;SDS011;43488;46.934;8.276;2022-07-22T10:14:32;697.30;;;471.38;;
57231;SDS011;43488;46.934;8.276;2022-07-22T10:17:01;688.03;;;430.40;;
57231;SDS011;43488;46.934;8.276;2022-07-22T10:19:30;694.65;;;480.27;;
57231;SDS011;43488;46.934;8.276;2022-07-22T10:21:58;695.53;;;472.30;;
57231;SDS011;43488;46.934;8.276;2022-07-22T10:24:25;693.25;;;480.80;;
57231;SDS011;43488;46.934;8.276;2022-07-22T10:26:54;691.63;;;481.73;;
57231;SDS011;43488;46.934;8.276;2022-07-22T10:29:32;681.28;;;438.85;;
57231;SDS011;43488;46.934;8.276;2022-07-22T10:45:35;635.25;;;396.40;;
57231;SDS011;43488;46.934;8.276;2022-07-22T10:48:10;627.50;;;380.33;;
57231;SDS011;43488;46.934;8.276;2022-07-22T10:50:44;614.50;;;438.98;;
57231;SDS011;43488;46.934;8.276;2022-07-22T10:56:24;627.97;;;413.38;;
57231;SDS011;43488;46.934;8.276;2022-07-22T10:58:54;614.53;;;451.85;;
57231;SDS011;43488;46.934;8.276;2022-07-22T11:09:13;616.75;;;443.15;;
57231;SDS011;43488;46.934;8.276;2022-07-22T11:14:33;640.00;;;450.85;;
57231;SDS011;43488;46.934;8.276;2022-07-22T11:17:06;623.28;;;482.70;;
57231;SDS011;43488;46.934;8.276;2022-07-22T11:19:37;627.95;;;479.83;;
57231;SDS011;43488;46.934;8.276;2022-07-22T11:22:07;639.90;;;455.58;;
57231;SDS011;43488;46.934;8.276;2022-07-22T11:24:38;618.67;;;474.20;;
57231;SDS011;43488;46.934;8.276;2022-07-22T11:27:13;635.58;;;447.15;;
57231;SDS011;43488;46.934;8.276;2022-07-22T11:29:43;624.65;;;483.25;;
57231;SDS011;43488;46.934;8.276;2022-07-22T11:32:17;622.30;;;478.25;;
57231;SDS011;43488;46.934;8.276;2022-07-22T11:34:46;622.78;;;479.05;;
57231;SDS011;43488;46.934;8.276;2022-07-22T11:37:14;643.47;;;451.65;;
57231;SDS011;43488;46.934;8.276;2022-07-22T11:39:49;643.08;;;494.13;;
57231;SDS011;43488;46.934;8.276;2022-07-22T11:42:18;650.63;;;465.33;;
57231;SDS011;43488;46.934;8.276;2022-07-22T11:44:45;643.10;;;484.92;;
57231;SDS011;43488;46.934;8.276;2022-07-22T11:47:13;629.30;;;489.63;;
57231;SDS011;43488;46.934;8.276;2022-07-22T11:49:40;619.80;;;460.23;;
57231;SDS011;43488;46.934;8.276;2022-07-22T11:52:08;645.63;;;471.65;;
57231;SDS011;43488;46.934;8.276;2022-07-22T11:54:39;639.67;;;458.85;;
57231;SDS011;43488;46.934;8.276;2022-07-22T11:57:07;638.45;;;455.80;;
57231;SDS011;43488;46.934;8.276;2022-07-22T11:59:35;619.17;;;476.17;;
57231;SDS011;43488;46.934;8.276;2022-07-22T12:02:03;626.20;;;496.80;;
57231;SDS011;43488;46.934;8.276;2022-07-22T12:04:34;639.92;;;463.45;;
57231;SDS011;43488;46.934;8.276;2022-07-22T12:07:02;643.30;;;467.75;;
57231;SDS011;43488;46.934;8.276;2022-07-22T12:09:32;642.17;;;437.77;;
57231;SDS011;43488;46.934;8.276;2022-07-22T12:12:03;627.55;;;490.58;;
57231;SDS011;43488;46.934;8.276;2022-07-22T12:14:32;641.28;;;449.10;;
57231;SDS011;43488;46.934;8.276;2022-07-22T12:17:02;648.78;;;461.02;;
57231;SDS011;43488;46.934;8.276;2022-07-22T12:19:39;643.28;;;455.65;;
57231;SDS011;43488;46.934;8.276;2022-07-22T12:22:10;627.03;;;480.92;;
57231;SDS011;43488;46.934;8.276;2022-07-22T12:24:57;641.72;;;445.15;;
57231;SDS011;43488;46.934;8.276;2022-07-22T12:27:28;621.83;;;472.55;;
57231;SDS011;43488;46.934;8.276;2022-07-22T12:29:58;638.75;;;445.30;;
57231;SDS011;43488;46.934;8.276;2022-07-22T12:32:27;646.70;;;470.27;;
57231;SDS011;43488;46.934;8.276;2022-07-22T12:34:57;642.60;;;460.73;;
57231;SDS011;43488;46.934;8.276;2022-07-22T12:37:43;625.53;;;483.45;;
57231;SDS011;43488;46.934;8.276;2022-07-22T12:43:03;648.80;;;486.55;;
57231;SDS011;43488;46.934;8.276;2022-07-22T12:45:35;645.08;;;452.05;;
57231;SDS011;43488;46.934;8.276;2022-07-22T12:48:05;661.97;;;501.65;;
57231;SDS011;43488;46.934;8.276;2022-07-22T12:53:24;658.65;;;481.33;;
57231;SDS011;43488;46.934;8.276;2022-07-22T12:55:56;647.90;;;490.17;;
57231;SDS011;43488;46.934;8.276;2022-07-22T12:58:29;640.60;;;505.60;;
57231;SDS011;43488;46.934;8.276;2022-07-22T13:00:59;629.92;;;502.13;;
57231;SDS011;43488;46.934;8.276;2022-07-22T13:03:28;643.17;;;487.90;;
57231;SDS011;43488;46.934;8.276;2022-07-22T13:05:57;631.58;;;500.48;;
57231;SDS011;43488;46.934;8.276;2022-07-22T13:08:29;630.30;;;502.52;;
57231;SDS011;43488;46.934;8.276;2022-07-22T13:10:57;628.80;;;492.70;;
57231;SDS011;43488;46.934;8.276;2022-07-22T13:13:24;648.70;;;487.55;;
57231;SDS011;43488;46.934;8.276;2022-07-22T13:15:52;647.80;;;473.88;;
57231;SDS011;43488;46.934;8.276;2022-07-22T13:18:20;653.97;;;482.92;;
57231;SDS011;43488;46.934;8.276;2022-07-22T13:20:48;650.33;;;503.52;;
57231;SDS011;43488;46.934;8.276;2022-07-22T13:23:15;650.55;;;507.98;;
57231;SDS011;43488;46.934;8.276;2022-07-22T13:25:42;651.20;;;502.45;;
57231;SDS011;43488;46.934;8.276;2022-07-22T13:28:09;631.88;;;489.90;;
57231;SDS011;43488;46.934;8.276;2022-07-22T13:30:38;646.55;;;494.40;;
57231;SDS011;43488;46.934;8.276;2022-07-22T13:33:05;634.15;;;516.85;;
57231;SDS011;43488;46.934;8.276;2022-07-22T13:35:33;633.33;;;508.20;;
57231;SDS011;43488;46.934;8.276;2022-07-22T13:38:02;632.03;;;506.83;;
57231;SDS011;43488;46.934;8.276;2022-07-22T13:40:29;635.17;;;510.85;;
57231;SDS011;43488;46.934;8.276;2022-07-22T13:42:57;648.80;;;502.33;;
57231;SDS011;43488;46.934;8.276;2022-07-22T13:45:25;638.03;;;511.58;;
57231;SDS011;43488;46.934;8.276;2022-07-22T13:47:52;648.88;;;475.10;;
57231;SDS011;43488;46.934;8.276;2022-07-22T13:50:20;647.60;;;492.13;;
57231;SDS011;43488;46.934;8.276;2022-07-22T13:52:48;647.60;;;488.92;;
57231;SDS011;43488;46.934;8.276;2022-07-22T13:55:15;635.00;;;508.88;;
57231;SDS011;43488;46.934;8.276;2022-07-22T13:57:44;650.78;;;497.60;;
57231;SDS011;43488;46.934;8.276;2022-07-22T14:00:13;652.83;;;505.20;;
57231;SDS011;43488;46.934;8.276;2022-07-22T14:02:45;650.95;;;505.33;;
57231;SDS011;43488;46.934;8.276;2022-07-22T14:05:14;650.47;;;495.73;;
57231;SDS011;43488;46.934;8.276;2022-07-22T14:07:44;649.42;;;495.08;;
57231;SDS011;43488;46.934;8.276;2022-07-22T14:10:12;631.10;;;511.67;;
57231;SDS011;43488;46.934;8.276;2022-07-22T14:12:40;635.22;;;519.28;;
57231;SDS011;43488;46.934;8.276;2022-07-22T14:15:08;632.47;;;511.55;;
57231;SDS011;43488;46.934;8.276;2022-07-22T14:17:36;630.00;;;512.05;;
57231;SDS011;43488;46.934;8.276;2022-07-22T14:20:06;651.70;;;489.30;;
57231;SDS011;43488;46.934;8.276;2022-07-22T14:22:34;652.92;;;499.38;;
57231;SDS011;43488;46.934;8.276;2022-07-22T14:25:03;633.65;;;508.80;;
57231;SDS011;43488;46.934;8.276;2022-07-22T14:27:31;629.83;;;500.38;;
57231;SDS011;43488;46.934;8.276;2022-07-22T14:29:58;629.35;;;509.30;;
57231;SDS011;43488;46.934;8.276;2022-07-22T14:32:26;650.67;;;502.13;;
57231;SDS011;43488;46.934;8.276;2022-07-22T14:34:53;628.90;;;500.52;;
57231;SDS011;43488;46.934;8.276;2022-07-22T14:37:21;651.60;;;482.60;;